Terminal Aerodrome Forecast
Issued by NWS Tuscon, AZ

Home | Current Version | Previous Version | Text Only | Print | Product List | Glossary On
Versions: 1 2 3 4 5 6 7 8 9 10 11 12 13
947
FTUS45 KTWC 291133
TAFTUS
TAF
KTUS 291133Z 2912/3012 15007KT P6SM SKC
     FM291900 29012G20KT P6SM SCT100
     FM300300 27009KT P6SM SCT100
     FM300700 16008KT P6SM FEW100=

USA.gov is the U.S. government's official web portal to all federal, state and local government web resources and services.